Burrton, Kansas
Current Conditions -  °F | °C
As of 5:52 PM on Monday 22 Dec 2014 (Local Time) from KHUT Reporting Station
Scattered Clouds Scattered Clouds  
Wind Chill: 42°   Ceiling: Unl
Heat Index: 46°   Visibility: 10mi
Dew Point: 31°   Wind: 7mph
Humidity: 56%   Direction: 300°WNW
Pressure: 29.57"   Gusts: NA
Location:  38.02°N, 97.67°W
Report Text: KHUT 222352Z 30006KT 10SM SCT070 08/M01 A2957 RMK AO2 SLP010 T00781006 10128 20050 53015
Loading
Personal Weather Stations






























Interactive Weather Map New forecast layout! Learn more

10-Day Weather Forecast

Advertisements
Track Severe Weather on mobile